Time;durP1;ratioP1;P1;durP2;ratioP2;P2;SDS_P1;SDS_P2;PMS_P1;PMS_P2;Temp;Humidity;BMP_temperature;BMP_pressure;BME280_temperature;BME280_humidity;BME280_pressure;Samples;Min_cycle;Max_cycle;Signal;HPM_P1;HPM_P2
2023/05/30 00:02:27;;;;;;;8.07;5.57;;;;;;;24.88;45.84;100140.28;5071135;28;20465;-69
2023/05/30 00:04:56;;;;;;;7.03;4.85;;;;;;;24.87;46.04;100138.59;5070925;28;20065;-70
2023/05/30 00:07:24;;;;;;;9.00;5.25;;;;;;;24.86;46.14;100136.06;5070757;28;20045;-70
2023/05/30 00:09:52;;;;;;;7.32;5.15;;;;;;;24.85;45.93;100143.41;5070701;28;20151;-69
2023/05/30 00:12:21;;;;;;;8.07;5.60;;;;;;;24.84;45.86;100144.44;5070325;28;20570;-69
2023/05/30 00:14:49;;;;;;;9.05;5.53;;;;;;;24.83;46.01;100137.28;5070820;28;20072;-69
2023/05/30 00:17:17;;;;;;;7.10;5.22;;;;;;;24.82;45.88;100135.59;5070521;28;20532;-70
2023/05/30 00:19:47;;;;;;;7.70;5.32;;;;;;;24.81;46.00;100128.44;5070667;28;20041;-69
2023/05/30 00:22:18;;;;;;;8.27;5.47;;;;;;;24.80;46.09;100137.63;5070746;28;20135;-69
2023/05/30 00:24:49;;;;;;;7.45;5.30;;;;;;;24.79;45.97;100135.94;5070383;28;20071;-70
2023/05/30 00:27:17;;;;;;;7.45;5.10;;;;;;;24.77;45.94;100138.88;5070801;28;20044;-69
2023/05/30 00:29:46;;;;;;;8.13;5.65;;;;;;;24.77;45.91;100148.94;5072185;28;20135;-69
2023/05/30 00:32:14;;;;;;;8.27;5.25;;;;;;;24.75;45.94;100143.66;5074248;28;20049;-69
2023/05/30 00:34:42;;;;;;;7.57;5.22;;;;;;;24.75;45.99;100140.94;5074149;28;20056;-69
2023/05/30 00:37:12;;;;;;;7.45;5.35;;;;;;;24.74;45.97;100144.72;5074039;28;20088;-69
2023/05/30 00:39:40;;;;;;;8.13;5.45;;;;;;;24.73;45.90;100147.63;5073897;28;20098;-69
2023/05/30 00:42:11;;;;;;;7.82;5.65;;;;;;;24.72;46.05;100145.94;5074198;28;20045;-69
2023/05/30 00:44:39;;;;;;;8.70;5.38;;;;;;;24.71;46.09;100139.63;5074020;28;20045;-69
2023/05/30 00:47:07;;;;;;;9.25;5.32;;;;;;;24.70;46.20;100139.78;5072675;28;20044;-69
2023/05/30 00:49:36;;;;;;;8.52;5.65;;;;;;;24.70;46.08;100147.97;5074025;28;20052;-69
2023/05/30 00:52:08;;;;;;;7.80;5.20;;;;;;;24.68;46.10;100141.88;5073720;28;20045;-69
2023/05/30 00:54:38;;;;;;;7.72;5.30;;;;;;;24.67;46.23;100140.19;5073882;28;20413;-69
2023/05/30 00:57:07;;;;;;;8.70;5.50;;;;;;;24.67;45.98;100149.19;5073837;28;20405;-69
2023/05/30 00:59:35;;;;;;;7.43;5.30;;;;;;;24.66;46.35;100141.22;5073684;28;20044;-69
2023/05/30 01:02:04;;;;;;;8.52;5.43;;;;;;;24.65;46.27;100137.63;5073526;28;20508;-69
2023/05/30 01:04:32;;;;;;;7.65;5.22;;;;;;;24.64;46.34;100143.28;5073507;28;20048;-69
2023/05/30 01:07:01;;;;;;;7.28;5.00;;;;;;;24.63;46.30;100137.00;5073731;28;20071;-69
2023/05/30 01:09:29;;;;;;;8.18;5.25;;;;;;;24.62;46.37;100138.03;5073368;28;20056;-69
2023/05/30 01:12:11;;;;;;;7.68;4.75;;;;;;;24.61;46.28;100138.19;5073365;28;20053;-69
2023/05/30 01:14:45;;;;;;;7.43;5.35;;;;;;;24.61;46.52;100138.19;5073406;28;20114;-69
2023/05/30 01:17:20;;;;;;;7.88;5.53;;;;;;;24.59;46.29;100135.66;5073248;28;20045;-69
2023/05/30 01:20:07;;;;;;;7.75;5.60;;;;;;;24.59;46.47;100141.09;5072155;28;20084;-69
2023/05/30 01:23:02;;;;;;;7.85;5.38;;;;;;;24.58;46.48;100141.28;5073325;28;20044;-69
2023/05/30 01:25:53;;;;;;;8.23;5.32;;;;;;;24.57;46.62;100139.59;5073034;28;20470;-69
2023/05/30 01:28:28;;;;;;;8.80;5.60;;;;;;;24.55;46.62;100140.63;5071056;28;20045;-69
2023/05/30 01:30:57;;;;;;;7.30;5.25;;;;;;;24.54;46.54;100144.41;5073101;28;20049;-69
2023/05/30 01:33:31;;;;;;;6.85;5.00;;;;;;;24.53;46.74;100142.72;5073165;28;20040;-69
2023/05/30 01:35:59;;;;;;;7.57;5.53;;;;;;;24.53;46.84;100141.88;5072985;28;20056;-69
2023/05/30 01:38:28;;;;;;;7.80;5.25;;;;;;;24.51;46.32;100139.31;5072973;28;20045;-69
2023/05/30 01:40:59;;;;;;;8.60;5.60;;;;;;;24.50;46.53;100137.59;5072458;28;20050;-69
2023/05/30 01:43:44;;;;;;;8.02;5.30;;;;;;;24.49;46.56;100137.78;5072757;28;20044;-69
2023/05/30 01:46:22;;;;;;;7.38;5.15;;;;;;;24.48;46.67;100142.41;5073171;28;20047;-69
2023/05/30 01:48:59;;;;;;;7.15;5.40;;;;;;;24.47;46.36;100137.97;5072826;28;20139;-69
2023/05/30 01:51:32;;;;;;;7.30;4.95;;;;;;;24.45;46.42;100137.31;5072626;28;20092;-69
2023/05/30 01:54:03;;;;;;;7.70;5.10;;;;;;;24.44;46.28;100141.09;5072474;28;20049;-69
2023/05/30 01:56:33;;;;;;;7.38;4.80;;;;;;;24.43;46.60;100142.13;5072526;28;20048;-69
2023/05/30 01:59:08;;;;;;;6.45;4.95;;;;;;;24.43;46.58;100136.66;5072405;28;20048;-69
2023/05/30 02:01:37;;;;;;;7.18;4.93;;;;;;;24.42;46.55;100140.44;5072399;28;20499;-69
2023/05/30 02:04:06;;;;;;;6.32;4.75;;;;;;;24.42;46.59;100136.84;5072590;28;20048;-69
2023/05/30 02:06:37;;;;;;;6.53;4.95;;;;;;;24.40;46.58;100126.13;5072596;28;20127;-69
2023/05/30 02:09:06;;;;;;;6.68;4.75;;;;;;;24.39;46.70;100134.47;5072315;28;20076;-69
2023/05/30 02:11:34;;;;;;;6.88;5.10;;;;;;;24.38;46.42;100133.63;5071881;28;20537;-69
2023/05/30 02:14:05;;;;;;;7.57;5.25;;;;;;;24.37;46.83;100131.94;5072162;28;20116;-69
2023/05/30 02:16:33;;;;;;;7.03;5.15;;;;;;;24.36;46.51;100123.97;5071970;28;20439;-69
2023/05/30 02:19:01;;;;;;;7.65;5.15;;;;;;;24.35;46.51;100127.72;5072155;28;20059;-69
2023/05/30 02:21:32;;;;;;;6.80;4.90;;;;;;;24.34;46.43;100128.75;5072050;28;20865;-69
2023/05/30 02:24:00;;;;;;;7.25;5.05;;;;;;;24.33;46.52;100127.91;5071852;28;20049;-69
2023/05/30 02:26:28;;;;;;;8.20;5.03;;;;;;;24.31;46.64;100127.22;5071838;28;20410;-69
2023/05/30 02:28:57;;;;;;;7.97;5.13;;;;;;;24.31;46.37;100127.22;5072008;28;20044;-69
2023/05/30 02:31:26;;;;;;;6.82;5.10;;;;;;;24.30;46.47;100130.94;5071932;28;20052;-69
2023/05/30 02:33:55;;;;;;;7.88;5.30;;;;;;;24.30;46.64;100128.22;5070615;28;20040;-69
2023/05/30 02:36:23;;;;;;;7.18;4.95;;;;;;;24.27;46.52;100121.28;5071761;28;20044;-69
2023/05/30 02:38:51;;;;;;;8.07;5.22;;;;;;;24.28;46.49;100127.56;5071687;28;20051;-69
2023/05/30 02:41:20;;;;;;;7.63;5.07;;;;;;;24.27;46.48;100125.88;5071875;28;20374;-69
2023/05/30 02:43:49;;;;;;;6.88;5.28;;;;;;;24.25;46.54;100127.94;5071775;28;20083;-69
2023/05/30 02:46:17;;;;;;;6.43;4.55;;;;;;;24.25;46.48;100125.22;5071755;28;20060;-69
2023/05/30 02:48:47;;;;;;;6.90;4.93;;;;;;;24.24;46.52;100124.38;5071700;28;20045;-69
2023/05/30 02:51:15;;;;;;;8.18;4.90;;;;;;;24.23;46.57;100125.41;5071348;28;20524;-69
2023/05/30 02:53:43;;;;;;;6.90;5.18;;;;;;;24.22;46.60;100126.44;5070855;28;20131;-69
2023/05/30 02:56:11;;;;;;;6.35;4.43;;;;;;;24.21;46.64;100127.44;5071739;28;20052;-69
2023/05/30 02:58:40;;;;;;;7.03;4.75;;;;;;;24.20;46.52;100127.63;5071371;28;20483;-69
2023/05/30 03:01:09;;;;;;;7.05;5.05;;;;;;;24.19;46.63;100123.22;5071452;28;20392;-69
2023/05/30 03:03:37;;;;;;;8.95;5.00;;;;;;;24.18;46.52;100132.41;5071474;28;20099;-69
2023/05/30 03:06:07;;;;;;;7.13;5.07;;;;;;;24.17;46.56;100128.00;5071546;28;20049;-69
2023/05/30 03:08:35;;;;;;;6.95;5.00;;;;;;;24.17;46.51;100130.72;5071538;28;20135;-69
2023/05/30 03:11:03;;;;;;;6.97;4.85;;;;;;;24.16;46.79;100134.50;5071310;28;20493;-69
2023/05/30 03:13:32;;;;;;;7.03;4.78;;;;;;;24.15;46.43;100135.53;5071128;28;20056;-69
2023/05/30 03:16:00;;;;;;;7.15;5.13;;;;;;;24.14;46.57;100142.00;5071386;28;20189;-69
2023/05/30 03:18:28;;;;;;;6.38;4.63;;;;;;;24.13;46.53;100141.16;5071020;28;20040;-69
2023/05/30 03:20:56;;;;;;;8.40;4.95;;;;;;;24.12;46.71;100144.03;5071448;28;20063;-69
2023/05/30 03:23:26;;;;;;;6.72;4.80;;;;;;;24.11;46.55;100147.78;5071203;28;20512;-69
2023/05/30 03:25:55;;;;;;;7.45;4.97;;;;;;;24.10;46.67;100146.94;5071114;28;20041;-69
2023/05/30 03:28:23;;;;;;;6.80;4.80;;;;;;;24.10;46.57;100148.84;5071121;28;20044;-69
2023/05/30 03:30:55;;;;;;;7.47;4.78;;;;;;;24.10;46.56;100151.56;5070845;28;20059;-69
2023/05/30 03:33:24;;;;;;;7.05;4.90;;;;;;;24.07;46.66;100150.06;5071112;28;20399;-69
2023/05/30 03:35:53;;;;;;;6.80;4.47;;;;;;;24.08;46.64;100156.34;5071000;28;20048;-69
2023/05/30 03:38:21;;;;;;;6.95;4.90;;;;;;;24.06;46.73;100156.53;5071075;28;20048;-69
2023/05/30 03:40:51;;;;;;;6.53;4.32;;;;;;;24.06;46.76;100158.41;5070832;28;20490;-68
2023/05/30 03:43:19;;;;;;;7.20;4.82;;;;;;;24.05;46.68;100171.19;5070939;28;20075;-69
2023/05/30 03:45:47;;;;;;;7.15;4.75;;;;;;;24.04;46.71;100160.47;5071010;28;20105;-69
2023/05/30 03:48:19;;;;;;;6.63;4.65;;;;;;;24.04;46.64;100166.78;5071033;28;20090;-69
2023/05/30 03:50:47;;;;;;;6.90;4.50;;;;;;;24.03;46.53;100172.38;5070852;28;20091;-69
2023/05/30 03:53:15;;;;;;;6.90;4.47;;;;;;;24.02;46.74;100181.59;5070700;28;20106;-69
2023/05/30 03:55:43;;;;;;;7.57;4.97;;;;;;;24.02;46.63;100176.13;5070668;28;20091;-69
2023/05/30 03:58:13;;;;;;;5.75;4.40;;;;;;;24.01;46.72;100177.16;5070639;28;20102;-69
2023/05/30 04:00:41;;;;;;;6.40;4.38;;;;;;;23.99;46.76;100183.66;5070913;28;20046;-69
2023/05/30 04:03:09;;;;;;;6.90;4.93;;;;;;;23.97;46.65;100177.53;5070606;28;20140;-69
2023/05/30 04:05:38;;;;;;;6.50;4.68;;;;;;;23.97;46.81;100180.25;5074031;28;20044;-69
2023/05/30 04:08:06;;;;;;;6.30;4.88;;;;;;;23.97;46.74;100180.25;5074487;28;20142;-69
2023/05/30 04:10:34;;;;;;;5.97;4.40;;;;;;;23.97;46.83;100182.97;5074116;28;20139;-68
2023/05/30 04:13:02;;;;;;;7.07;4.70;;;;;;;23.96;46.81;100184.00;5074214;28;20083;-69
2023/05/30 04:15:32;;;;;;;6.88;4.75;;;;;;;23.95;46.99;100187.78;5074498;28;20040;-69
2023/05/30 04:18:01;;;;;;;7.45;4.82;;;;;;;23.96;47.00;100188.63;5074428;28;20056;-69
2023/05/30 04:20:29;;;;;;;6.28;4.60;;;;;;;23.94;46.70;100179.78;5074227;28;20040;-69
2023/05/30 04:22:57;;;;;;;6.57;4.47;;;;;;;23.93;46.79;100187.09;5073732;28;20069;-69
2023/05/30 04:25:25;;;;;;;7.70;5.03;;;;;;;23.93;47.01;100184.38;5074254;28;20041;-69
2023/05/30 04:27:54;;;;;;;6.85;4.75;;;;;;;23.93;46.96;100187.09;5074090;28;20048;-69
2023/05/30 04:30:22;;;;;;;7.20;4.75;;;;;;;23.93;46.80;100188.94;5074231;28;20160;-69
2023/05/30 04:32:52;;;;;;;6.30;4.80;;;;;;;23.92;47.02;100188.09;5074217;28;20057;-68
2023/05/30 04:35:21;;;;;;;6.53;4.70;;;;;;;23.91;47.04;100191.03;5074109;28;20049;-68
2023/05/30 04:37:50;;;;;;;7.18;4.65;;;;;;;23.92;47.18;100200.88;5073899;28;20052;-68
2023/05/30 04:40:20;;;;;;;6.97;4.88;;;;;;;23.91;47.02;100197.31;5073797;28;20048;-68
2023/05/30 04:42:51;;;;;;;6.75;4.93;;;;;;;23.90;47.02;100201.06;5073960;28;20055;-68
2023/05/30 04:45:26;;;;;;;6.55;4.95;;;;;;;23.90;47.09;100198.34;5073940;28;20049;-68
2023/05/30 04:47:56;;;;;;;7.63;4.82;;;;;;;23.91;47.08;100201.91;5073917;28;20131;-68
2023/05/30 04:50:26;;;;;;;7.60;4.93;;;;;;;23.90;47.18;100206.50;5073723;28;20059;-67
2023/05/30 04:52:54;;;;;;;7.43;5.28;;;;;;;23.89;47.16;100199.38;5073803;28;20433;-67
2023/05/30 04:55:23;;;;;;;6.97;5.05;;;;;;;23.90;47.09;100203.78;5073779;28;20135;-67
2023/05/30 04:57:51;;;;;;;7.35;4.93;;;;;;;23.88;47.31;100205.84;5073710;28;20057;-67
2023/05/30 05:00:21;;;;;;;7.75;5.13;;;;;;;23.89;47.30;100199.38;5073674;28;20075;-68
2023/05/30 05:02:51;;;;;;;8.05;5.68;;;;;;;23.90;47.21;100202.94;5073297;28;20048;-68
2023/05/30 05:05:21;;;;;;;7.78;5.00;;;;;;;23.90;47.25;100202.94;5073581;28;20048;-68
2023/05/30 05:07:49;;;;;;;7.00;4.82;;;;;;;23.89;47.33;100204.81;5073507;28;20051;-69
2023/05/30 05:10:18;;;;;;;6.78;4.85;;;;;;;23.90;47.32;100205.66;5073346;28;20052;-68
2023/05/30 05:12:46;;;;;;;7.22;5.25;;;;;;;23.89;47.26;100204.81;5073365;28;20056;-68
2023/05/30 05:15:15;;;;;;;6.60;4.53;;;;;;;23.89;47.04;100209.41;5072518;28;20048;-70
2023/05/30 05:17:43;;;;;;;7.82;4.65;;;;;;;23.89;47.25;100203.97;5072536;28;20044;-69
2023/05/30 05:20:14;;;;;;;8.45;5.10;;;;;;;23.89;47.28;100206.69;5073302;28;20444;-69
2023/05/30 05:22:43;;;;;;;6.85;4.97;;;;;;;23.89;47.41;100207.53;5073283;28;20047;-69
2023/05/30 05:25:11;;;;;;;7.50;4.93;;;;;;;23.90;47.32;100214.69;5072954;28;20494;-69
2023/05/30 05:27:40;;;;;;;7.00;4.70;;;;;;;23.89;47.38;100213.00;5072704;28;20501;-69
2023/05/30 05:30:10;;;;;;;7.05;4.80;;;;;;;23.90;47.19;100216.56;5072820;28;20132;-69
2023/05/30 05:32:39;;;;;;;8.35;5.10;;;;;;;23.90;47.29;100217.41;5071626;28;20451;-68
2023/05/30 05:35:09;;;;;;;6.25;4.72;;;;;;;23.92;47.33;100214.50;5072858;28;20063;-68
2023/05/30 05:37:41;;;;;;;7.22;4.65;;;;;;;23.91;47.22;100218.25;5072597;28;20045;-68
2023/05/30 05:40:12;;;;;;;6.60;4.57;;;;;;;23.91;47.22;100213.66;5072413;28;20143;-67
2023/05/30 05:42:42;;;;;;;7.47;5.05;;;;;;;23.91;47.37;100216.38;5072326;28;20041;-71
2023/05/30 05:45:16;;;;;;;6.70;5.00;;;;;;;23.92;47.26;100223.53;5078938;28;20109;-70
2023/05/30 05:47:44;;;;;;;7.40;4.80;;;;;;;23.92;47.28;100215.34;5074455;28;20090;-71
2023/05/30 05:50:13;;;;;;;6.72;4.60;;;;;;;23.93;47.39;100221.63;5078894;28;20083;-69
2023/05/30 05:52:41;;;;;;;8.05;5.07;;;;;;;23.93;47.49;100222.53;5091249;28;20097;-69
2023/05/30 05:55:11;;;;;;;7.15;5.18;;;;;;;23.94;47.62;100223.38;5090276;28;20070;-69
2023/05/30 05:57:39;;;;;;;7.47;4.80;;;;;;;23.94;47.50;100226.94;5091111;28;20439;-70
2023/05/30 06:00:09;;;;;;;6.93;4.55;;;;;;;23.94;47.51;100229.66;5090752;28;20044;-70
2023/05/30 06:02:38;;;;;;;7.32;5.13;;;;;;;23.95;47.34;100228.63;5092146;28;20563;-67
2023/05/30 06:05:08;;;;;;;6.90;5.00;;;;;;;23.95;47.38;100231.34;5092188;28;20044;-70
2023/05/30 06:07:37;;;;;;;8.07;4.93;;;;;;;23.95;47.40;100223.19;5092250;28;20135;-69
2023/05/30 06:10:06;;;;;;;7.43;4.88;;;;;;;23.96;47.41;100233.06;5092352;28;20501;-69
2023/05/30 06:12:36;;;;;;;10.18;5.05;;;;;;;23.97;47.42;100234.75;5092082;28;20060;-69
2023/05/30 06:15:04;;;;;;;8.13;4.70;;;;;;;23.98;47.43;100236.44;5092359;28;20062;-69
2023/05/30 06:17:33;;;;;;;8.82;5.00;;;;;;;23.99;47.48;100240.84;5092292;28;20093;-68
2023/05/30 06:20:01;;;;;;;7.38;4.88;;;;;;;23.99;47.37;100243.56;5092215;28;20043;-70
2023/05/30 06:22:32;;;;;;;8.07;4.82;;;;;;;24.00;47.44;100241.69;5092226;28;20135;-69
2023/05/30 06:25:00;;;;;;;8.68;4.95;;;;;;;23.99;47.58;100240.84;5086507;28;20056;-66
2023/05/30 06:27:30;;;;;;;8.05;4.55;;;;;;;24.02;47.53;100239.63;5069786;28;20051;-64
2023/05/30 06:30:00;;;;;;;8.70;5.18;;;;;;;24.03;47.42;100243.22;5070465;28;20143;-65
2023/05/30 06:32:28;;;;;;;8.13;4.75;;;;;;;24.02;47.45;100246.97;5071353;28;20041;-65
2023/05/30 06:34:56;;;;;;;7.47;4.97;;;;;;;24.04;47.42;100239.47;5070083;28;20040;-65
2023/05/30 06:37:25;;;;;;;7.85;4.88;;;;;;;24.04;47.31;100240.34;5070586;28;20044;-65
2023/05/30 06:39:56;;;;;;;8.23;5.10;;;;;;;24.05;47.42;100243.91;5068152;28;20454;-64
2023/05/30 06:42:25;;;;;;;6.70;4.43;;;;;;;24.05;47.30;100244.75;5071356;28;20486;-65
2023/05/30 06:44:53;;;;;;;6.55;4.68;;;;;;;24.05;47.44;100247.47;5089068;28;20044;-65
2023/05/30 06:47:23;;;;;;;6.93;4.65;;;;;;;24.07;47.33;100250.00;5091550;28;20132;-65
2023/05/30 06:49:51;;;;;;;6.68;4.68;;;;;;;24.07;47.43;100250.00;5091915;28;20052;-64
2023/05/30 06:52:19;;;;;;;6.80;4.65;;;;;;;24.07;47.55;100253.59;5091824;28;20044;-64
2023/05/30 06:54:47;;;;;;;6.90;4.70;;;;;;;24.07;47.36;100258.19;5090906;28;20059;-64
2023/05/30 06:57:16;;;;;;;7.10;4.90;;;;;;;24.09;47.43;100258.84;5091080;28;20040;-64
2023/05/30 06:59:44;;;;;;;6.47;4.60;;;;;;;24.09;47.30;100264.31;5090276;28;20052;-65
2023/05/30 07:02:12;;;;;;;6.60;4.72;;;;;;;24.10;47.43;100255.09;5091241;28;20098;-65
2023/05/30 07:04:41;;;;;;;8.10;5.18;;;;;;;24.11;47.54;100259.50;5090397;28;20058;-63
2023/05/30 07:07:10;;;;;;;7.88;4.63;;;;;;;24.11;47.61;100254.06;5091452;28;20072;-64
2023/05/30 07:09:38;;;;;;;7.38;5.22;;;;;;;24.10;47.43;100246.91;5090980;28;20058;-64
2023/05/30 07:12:07;;;;;;;7.25;4.85;;;;;;;24.12;47.44;100253.03;5091357;28;20044;-64
2023/05/30 07:14:35;;;;;;;8.18;5.18;;;;;;;24.12;47.63;100248.44;5091153;28;20060;-64
2023/05/30 07:17:04;;;;;;;7.65;5.30;;;;;;;24.12;47.71;100253.03;5091365;28;20051;-64
2023/05/30 07:19:33;;;;;;;7.47;5.15;;;;;;;24.13;47.63;100258.31;5091387;28;20093;-64
2023/05/30 07:22:02;;;;;;;7.50;5.03;;;;;;;24.13;47.86;100252.88;5091426;28;20051;-64
2023/05/30 07:24:31;;;;;;;8.13;5.60;;;;;;;24.15;47.69;100258.16;5091184;28;20044;-65
2023/05/30 07:26:59;;;;;;;7.35;4.60;;;;;;;24.15;47.77;100256.25;5091089;28;20044;-64
2023/05/30 07:29:27;;;;;;;6.80;4.93;;;;;;;24.16;47.66;100255.22;5090881;28;20070;-64
2023/05/30 07:31:55;;;;;;;7.22;5.07;;;;;;;24.17;47.63;100256.06;5091174;28;20070;-64
2023/05/30 07:34:24;;;;;;;7.68;5.20;;;;;;;24.18;47.75;100263.22;5091073;28;20554;-63
2023/05/30 07:36:52;;;;;;;7.22;5.25;;;;;;;24.18;47.68;100253.16;5091000;28;20091;-64
2023/05/30 07:39:24;;;;;;;7.43;4.57;;;;;;;24.20;47.77;100256.56;5093733;28;20092;-64
2023/05/30 07:41:52;;;;;;;6.55;4.40;;;;;;;24.22;47.80;100259.09;5097658;28;20044;-64
2023/05/30 07:44:21;;;;;;;7.13;5.10;;;;;;;24.22;47.79;100251.81;5097595;28;20043;-65
2023/05/30 07:46:50;;;;;;;7.57;5.15;;;;;;;24.23;47.71;100267.13;5097802;28;20062;-64
2023/05/30 07:49:19;;;;;;;6.95;4.93;;;;;;;24.23;48.00;100258.09;5097555;28;20056;-64
2023/05/30 07:51:49;;;;;;;6.75;4.72;;;;;;;24.23;48.04;100258.94;5097560;28;20044;-63
2023/05/30 07:54:17;;;;;;;8.32;5.13;;;;;;;24.24;47.81;100265.25;5097441;28;20121;-64
2023/05/30 07:56:46;;;;;;;7.18;4.53;;;;;;;24.24;47.74;100262.50;5097977;28;20135;-64
2023/05/30 07:59:15;;;;;;;7.05;5.03;;;;;;;24.24;47.66;100263.38;5097780;28;20478;-64
2023/05/30 08:01:46;;;;;;;8.00;5.18;;;;;;;24.26;47.67;100265.91;5097770;28;20094;-64
2023/05/30 08:04:14;;;;;;;7.30;5.18;;;;;;;24.26;47.54;100266.75;5097623;28;20079;-64
2023/05/30 08:06:42;;;;;;;7.18;5.22;;;;;;;24.28;47.63;100266.56;5097682;28;20048;-64
2023/05/30 08:09:13;;;;;;;7.78;4.88;;;;;;;24.28;47.55;100270.13;5097490;28;20044;-64
2023/05/30 08:11:41;;;;;;;8.07;5.22;;;;;;;24.29;47.61;100265.53;5097519;28;20060;-64
2023/05/30 08:14:12;;;;;;;8.00;5.03;;;;;;;24.30;47.83;100267.22;5097098;28;20056;-64
2023/05/30 08:16:40;;;;;;;6.85;4.97;;;;;;;24.31;47.62;100268.94;5097352;28;20495;-65
2023/05/30 08:19:08;;;;;;;6.93;4.95;;;;;;;24.32;47.70;100267.94;5097593;28;20047;-64
2023/05/30 08:21:37;;;;;;;7.50;5.03;;;;;;;24.32;47.73;100265.22;5097436;28;20058;-65
2023/05/30 08:24:11;;;;;;;7.15;4.72;;;;;;;24.34;47.67;100265.88;5097656;28;20043;-65
2023/05/30 08:26:41;;;;;;;7.70;5.20;;;;;;;24.35;47.72;100264.84;5097389;28;20044;-64
2023/05/30 08:29:10;;;;;;;7.30;5.13;;;;;;;24.37;47.74;100267.38;5097560;28;20048;-64
2023/05/30 08:31:39;;;;;;;7.82;5.40;;;;;;;24.36;47.76;100266.53;5097123;28;20590;-64
2023/05/30 08:34:07;;;;;;;9.02;5.18;;;;;;;24.38;47.66;100274.53;5096863;28;20113;-65
2023/05/30 08:36:36;;;;;;;7.45;5.03;;;;;;;24.38;47.51;100272.66;5097304;28;20055;-65
2023/05/30 08:39:04;;;;;;;6.97;4.75;;;;;;;24.40;47.56;100262.41;5097229;28;20082;-65
2023/05/30 08:41:42;;;;;;;7.65;4.75;;;;;;;24.41;47.68;100264.09;5097115;28;20055;-65
2023/05/30 08:44:10;;;;;;;7.53;4.88;;;;;;;24.42;47.52;100265.84;5097073;28;20048;-65
2023/05/30 08:46:42;;;;;;;7.72;5.25;;;;;;;24.42;47.60;100268.56;5096677;28;20047;-64
2023/05/30 08:49:13;;;;;;;8.02;5.00;;;;;;;24.44;47.48;100279.28;5097045;28;20247;-65
2023/05/30 08:51:44;;;;;;;6.55;4.53;;;;;;;24.44;47.33;100274.66;5094639;28;20043;-65
2023/05/30 08:54:17;;;;;;;6.88;4.80;;;;;;;24.46;47.58;100277.22;5093708;28;20052;-65
2023/05/30 08:56:51;;;;;;;6.40;4.20;;;;;;;24.46;47.36;100283.50;5093759;28;20453;-65
2023/05/30 08:59:19;;;;;;;6.60;4.60;;;;;;;24.47;47.38;100290.66;5093494;28;20147;-64
2023/05/30 09:01:51;;;;;;;7.65;4.63;;;;;;;24.48;47.38;100297.81;5093782;28;20039;-65
2023/05/30 09:04:41;;;;;;;6.93;4.65;;;;;;;24.50;47.59;100294.88;5093658;28;20048;-64
2023/05/30 09:07:10;;;;;;;7.43;4.85;;;;;;;24.50;47.63;100295.75;5093668;28;20385;-65
2023/05/30 09:09:41;;;;;;;6.68;4.88;;;;;;;24.52;47.25;100290.97;5093478;28;20059;-64
2023/05/30 09:12:09;;;;;;;8.85;4.90;;;;;;;24.53;47.53;100295.41;5093248;28;20048;-65
2023/05/30 09:14:38;;;;;;;7.50;4.97;;;;;;;24.54;47.27;100291.63;5092994;28;20084;-65
2023/05/30 09:17:08;;;;;;;8.18;5.07;;;;;;;24.56;47.34;100294.19;5093259;28;20076;-65
2023/05/30 09:19:38;;;;;;;7.20;5.10;;;;;;;24.58;47.54;100296.72;5093114;28;20101;-64
2023/05/30 09:22:07;;;;;;;7.30;4.85;;;;;;;24.60;47.59;100302.81;5092851;28;20092;-64
2023/05/30 09:24:56;;;;;;;6.93;4.78;;;;;;;24.61;47.51;100305.41;5093035;28;20051;-64
2023/05/30 09:27:25;;;;;;;7.47;5.03;;;;;;;24.62;47.16;100304.38;5093031;28;20048;-64
2023/05/30 09:29:53;;;;;;;5.65;4.28;;;;;;;24.64;47.67;100304.19;5092883;28;20040;-64
2023/05/30 09:32:28;;;;;;;6.97;4.65;;;;;;;24.65;47.82;100311.31;5093129;28;20483;-64
2023/05/30 09:34:57;;;;;;;6.80;4.70;;;;;;;24.66;47.40;100315.75;5092953;28;20473;-65
2023/05/30 09:37:26;;;;;;;7.30;4.78;;;;;;;24.67;47.37;100312.00;5093122;28;20123;-65
2023/05/30 09:40:11;;;;;;;6.65;4.70;;;;;;;24.70;47.57;100317.06;5093211;28;20099;-64
2023/05/30 09:42:44;;;;;;;6.80;4.78;;;;;;;24.71;47.41;100325.09;5093099;28;20150;-65
2023/05/30 09:45:13;;;;;;;;;;;;;;;24.73;47.46;100317.56;5093304;28;20126;-64
2023/05/30 09:47:46;;;;;;;7.53;4.72;;;;;;;24.75;47.45;100326.41;5093229;28;19960;-64
2023/05/30 09:50:19;;;;;;;6.13;4.65;;;;;;;24.76;47.43;100321.81;5092962;28;20066;-64
2023/05/30 09:52:48;;;;;;;7.47;5.15;;;;;;;24.78;47.38;100322.47;5092631;28;20048;-63
2023/05/30 09:55:17;;;;;;;7.35;5.10;;;;;;;24.80;47.50;100317.66;5092830;28;20131;-63
2023/05/30 09:57:53;;;;;;;6.22;4.57;;;;;;;24.82;47.59;100316.47;5092738;28;20040;-63
2023/05/30 10:00:23;;;;;;;8.32;5.00;;;;;;;24.84;47.34;100319.03;5091880;28;20066;-64
2023/05/30 10:02:54;;;;;;;7.32;4.75;;;;;;;24.85;47.44;100320.72;5092233;28;20052;-64
2023/05/30 10:05:25;;;;;;;7.00;4.80;;;;;;;24.88;47.56;100327.66;5092729;28;20139;-64
2023/05/30 10:07:58;;;;;;;7.47;4.22;;;;;;;24.89;47.50;100327.47;5092733;28;20295;-64
2023/05/30 10:10:26;;;;;;;7.28;4.95;;;;;;;24.90;47.50;100323.75;5092675;28;20048;-64
2023/05/30 10:12:57;;;;;;;6.43;4.38;;;;;;;24.92;47.30;100327.13;5092232;28;20090;-64
2023/05/30 10:15:26;;;;;;;7.70;5.00;;;;;;;24.94;47.45;100330.53;5092190;28;20050;-64
2023/05/30 10:18:05;;;;;;;8.07;4.72;;;;;;;24.96;47.48;100338.53;5092020;28;20044;-64
2023/05/30 10:20:37;;;;;;;8.32;4.80;;;;;;;24.98;47.35;100326.38;5092058;28;20516;-65
2023/05/30 10:23:07;;;;;;;6.28;4.60;;;;;;;24.99;47.34;100317.16;5092217;28;20474;-64
2023/05/30 10:25:37;;;;;;;6.95;4.72;;;;;;;25.01;47.60;100314.28;5092011;28;20508;-64
2023/05/30 10:28:10;;;;;;;8.23;4.93;;;;;;;25.02;47.29;100311.41;5092115;28;20048;-64
2023/05/30 10:30:40;;;;;;;7.25;4.40;;;;;;;25.04;47.73;100312.06;5091999;28;20044;-64
2023/05/30 10:33:10;;;;;;;6.43;4.50;;;;;;;25.07;47.36;100311.66;5091833;28;20052;-64
2023/05/30 10:35:39;;;;;;;6.78;4.65;;;;;;;25.10;47.40;100307.75;5091704;28;20404;-64
2023/05/30 10:38:11;;;;;;;6.35;4.40;;;;;;;25.12;47.38;100308.41;5092199;28;20560;-64
2023/05/30 10:40:50;;;;;;;6.53;4.57;;;;;;;25.15;47.60;100299.00;5091903;28;20542;-65
2023/05/30 10:43:37;;;;;;;7.53;4.47;;;;;;;25.19;47.66;100308.50;5091782;28;20055;-65
2023/05/30 10:46:18;;;;;;;7.07;4.45;;;;;;;25.20;47.56;100305.59;5091870;28;20051;-63
2023/05/30 10:48:54;;;;;;;6.82;4.55;;;;;;;25.23;47.34;100296.19;5091629;28;20051;-64
2023/05/30 10:51:22;;;;;;;7.10;4.30;;;;;;;25.25;47.38;100294.97;5091573;28;20559;-64
2023/05/30 10:53:51;;;;;;;6.82;4.80;;;;;;;25.28;47.25;100288.25;5091355;28;20067;-64
2023/05/30 10:56:36;;;;;;;7.15;4.18;;;;;;;25.31;47.32;100294.22;5091342;28;20051;-64
2023/05/30 10:59:18;;;;;;;6.13;4.22;;;;;;;25.34;47.35;100290.25;5091564;28;20048;-65
2023/05/30 11:01:59;;;;;;;6.10;4.38;;;;;;;25.37;47.17;100287.16;5091536;28;20047;-65
2023/05/30 11:04:34;;;;;;;5.72;4.15;;;;;;;25.38;47.26;100288.84;5091265;28;20415;-64
2023/05/30 11:07:11;;;;;;;6.80;4.53;;;;;;;25.39;47.03;100288.69;5091475;28;20390;-65
2023/05/30 11:09:41;;;;;;;6.28;4.22;;;;;;;25.40;47.30;100289.53;5091671;28;20048;-64
2023/05/30 11:12:21;;;;;;;6.15;4.10;;;;;;;25.43;47.46;100291.88;5091235;28;20129;-64
2023/05/30 11:14:56;;;;;;;5.80;4.00;;;;;;;25.44;47.51;100282.63;5090422;28;20135;-64
2023/05/30 11:17:31;;;;;;;5.50;3.90;;;;;;;25.45;47.21;100276.13;5090832;28;20139;-64
2023/05/30 11:20:09;;;;;;;7.43;4.55;;;;;;;25.47;47.18;100287.72;5091311;28;20040;-64
2023/05/30 11:22:38;;;;;;;6.82;4.20;;;;;;;25.49;46.98;100280.22;5091082;28;20044;-65
2023/05/30 11:25:22;;;;;;;6.05;4.32;;;;;;;25.51;47.29;100289.06;5091162;28;20497;-65
2023/05/30 11:28:15;;;;;;;6.22;4.40;;;;;;;25.55;47.20;100286.78;5090942;28;20441;-65
2023/05/30 11:30:48;;;;;;;7.22;4.30;;;;;;;25.57;47.26;100291.00;5091210;28;20067;-65
2023/05/30 11:33:19;;;;;;;6.03;4.38;;;;;;;25.61;47.28;100289.63;5089887;28;20048;-65
2023/05/30 11:35:50;;;;;;;6.28;4.35;;;;;;;25.64;47.54;100278.31;5090781;28;20055;-65
2023/05/30 11:38:19;;;;;;;6.03;4.22;;;;;;;25.68;47.47;100281.53;5091360;28;20044;-65
2023/05/30 11:40:49;;;;;;;6.63;4.30;;;;;;;25.72;47.14;100280.13;5091285;28;20123;-65